Latest Weather Observations for Griffith

IDN60801

Issued at 7:05 pm EST Tuesday 22 July 2014 (issued every 30 minutes, with the page automatically refreshed every 10 minutes)

About weather observations | Map of weather stations | Latest weather observations for NSW | Other Formats
Station Details ID: 075041 Name: GRIFFITH AIRPORT AWS Lat: -34.25 Lon: 146.07 Height: 134.0 m
Data from the previous 72 hours. | See also: Recent months at Griffith
Date/Time
EST
Temp
°C
App
Temp
°C
Dew
Point
Rel
Hum
%
Delta-T
°C
Wind Press
QNH
hPa
Press
MSL
hPa
Rain
since 9 am
mm
Dir
 
Spd
km/h
Gust
km/h
Spd
kts
Gust
kts
22/07:00pm 5.9 2.2 2.2 77 1.5 SSE 11 11 6 6 1023.3 - 0.0
22/06:30pm 7.0 3.3 2.3 72 1.9 SSE 11 11 6 6 1023.3 - 0.0
22/06:00pm 10.2 6.5 2.3 58 3.4 SSE 11 13 6 7 1023.3 1023.6 0.0
22/05:30pm 11.0 8.0 1.8 53 3.9 SSE 7 7 4 4 1023.2 - 0.0
22/05:00pm 13.7 12.0 2.0 45 5.1 CALM 0 6 0 3 1023.1 - 0.0
22/04:30pm 14.1 11.7 2.0 44 5.3 ESE 4 7 2 4 1022.8 - 0.0
22/04:00pm 14.4 11.1 0.3 38 6.0 S 7 11 4 6 1022.8 - 0.0
22/03:30pm 14.5 10.9 0.7 39 5.9 SSE 9 15 5 8 1022.6 - 0.0
22/03:00pm 14.4 10.7 -0.1 37 6.1 S 9 13 5 7 1022.7 1023.0 0.0
22/02:30pm 14.6 10.9 0.1 37 6.2 S 9 13 5 7 1022.9 - 0.0
22/02:00pm 14.7 12.3 2.3 43 5.5 NNW 4 7 2 4 1023.0 - 0.0
22/01:30pm 14.1 11.3 2.0 44 5.3 WNW 6 13 3 7 1023.3 - 0.0
22/01:00pm 13.2 10.6 4.4 55 4.1 SSE 7 13 4 7 1023.6 - 0.0
22/12:30pm 12.8 10.6 6.2 64 3.2 SSW 7 13 4 7 1024.2 - 0.0
22/12:00pm 12.6 10.8 7.3 70 2.6 SSE 6 9 3 5 1024.7 1024.9 0.0
22/11:30am 11.7 9.5 6.4 70 2.5 SE 7 11 4 6 1025.2 - 0.0
22/11:00am 11.0 9.1 8.9 87 1.0 E 9 11 5 6 1025.7 - 0.0
22/10:30am 9.1 7.2 9.0 99 0.0 E 9 9 5 5 1026.0 - 0.0
22/10:00am 7.2 4.8 7.2 100 0.0 E 9 13 5 7 1025.9 - 0.0
22/09:30am 5.6 2.5 5.6 100 0.0 E 11 13 6 7 1025.6 - 0.0
22/09:23am 5.7 3.0 5.7 100 0.0 E 9 13 5 7 1025.5 - 0.0
22/09:08am 5.3 2.5 5.3 100 0.0 E 9 11 5 6 1025.4 - 0.0
22/09:00am 4.6 1.7 4.6 100 0.0 E 9 11 5 6 1025.3 1025.5 0.0
22/08:54am 4.2 1.2 4.2 100 0.0 E 9 13 5 7 1025.2 - 0.0
22/08:30am 2.3 -1.0 2.3 100 0.0 ESE 9 11 5 6 1025.2 - 0.0
22/08:00am 2.0 -1.4 1.9 99 0.0 ESE 9 13 5 7 1024.8 - 0.0
22/07:30am 1.2 -2.3 1.1 99 0.0 E 9 13 5 7 1024.5 - 0.0
22/07:08am 1.7 -0.4 1.6 99 0.0 ESE 2 11 1 6 1024.3 - 0.0
22/07:00am 1.1 -0.7 1.0 99 0.0 CALM 0 0 0 0 1024.3 - 0.0
22/06:46am 1.1 -0.7 1.0 99 0.0 CALM 0 6 0 3 1024.1 - 0.0
22/06:30am 2.1 -1.3 2.0 99 0.0 SE 9 15 5 8 1023.8 - 0.0
22/06:10am 2.4 -1.7 2.3 99 0.0 ESE 13 13 7 7 1023.6 - 0.0
22/06:08am 2.4 -1.7 2.3 99 0.0 ESE 13 13 7 7 1023.6 - 0.0
22/06:00am 2.9 -0.7 2.8 99 0.0 ESE 11 13 6 7 1023.5 1023.8 0.0
22/05:41am 2.4 -2.1 2.3 99 0.0 ESE 15 17 8 9 1023.3 - 0.0
22/05:35am 2.5 -2.0 2.4 99 0.0 E 15 17 8 9 1023.3 - 0.0
22/05:30am 2.4 -2.1 2.3 99 0.0 E 15 17 8 9 1023.2 - 0.0
22/05:25am 2.0 -2.2 1.9 99 0.0 E 13 15 7 8 1023.2 - 0.0
22/05:18am 1.9 -2.3 1.8 99 0.0 ESE 13 15 7 8 1023.2 - 0.0
22/05:00am 2.2 -1.9 2.1 99 0.0 ESE 13 15 7 8 1023.2 - 0.0
22/04:57am 2.4 -2.1 2.3 99 0.0 ESE 15 17 8 9 1023.2 - 0.0
22/04:34am 3.0 -1.0 2.9 99 0.0 ESE 13 17 7 9 1023.1 - 0.0
22/04:30am 3.0 -0.6 2.9 99 0.0 ESE 11 15 6 8 1023.1 - 0.0
22/04:15am 3.0 -0.2 2.9 99 0.0 SE 9 11 5 6 1023.1 - 0.0
22/04:00am 3.4 0.2 3.3 99 0.0 ESE 9 13 5 7 1023.2 - 0.0
22/03:37am 3.6 0.9 3.5 99 0.0 ESE 7 9 4 5 1023.3 - 0.0
22/03:30am 3.4 0.6 3.3 99 0.0 SE 7 9 4 5 1023.2 - 0.0
22/03:00am 4.4 1.4 4.3 99 0.0 E 9 11 5 6 1023.2 1023.5 0.0
22/02:30am 3.6 2.2 3.5 99 0.0 CALM 0 0 0 0 1023.5 - 0.0
22/02:00am 3.6 2.2 3.5 99 0.0 CALM 0 0 0 0 1023.4 - 0.0
22/01:30am 6.0 3.7 5.9 99 0.0 ESE 7 11 4 6 1023.4 - 0.0
22/01:00am 6.3 3.0 6.2 99 0.0 ESE 13 15 7 8 1023.3 - 0.0
22/12:30am 6.0 1.5 5.9 99 0.0 ESE 19 19 10 10 1023.3 - 0.0
22/12:00am 5.9 1.7 5.5 97 0.2 ESE 17 19 9 10 1023.3 1023.6 0.0
 
Date/Time
EST
Temp
°C
App
Temp
°C
Dew
Point
Rel
Hum
%
Delta-T
°C
Wind Press
QNH
hPa
Press
MSL
hPa
Rain
since 9 am
mm
Dir
 
Spd
km/h
Gust
km/h
Spd
kts
Gust
kts
21/11:30pm 6.1 1.8 5.4 95 0.3 ESE 17 17 9 9 1023.4 - 0.0
21/11:00pm 6.5 2.5 5.1 91 0.6 ESE 15 17 8 9 1023.6 - 0.0
21/10:30pm 6.7 2.3 4.9 88 0.8 ESE 17 19 9 10 1023.7 - 0.0
21/10:00pm 6.7 2.3 4.5 86 1.0 ESE 17 19 9 10 1023.6 - 0.0
21/09:30pm 6.9 3.5 4.2 83 1.2 ESE 11 17 6 9 1023.7 - 0.0
21/09:00pm 7.1 2.8 3.5 78 1.5 ESE 15 17 8 9 1024.0 1024.2 0.0
21/08:30pm 9.2 5.6 3.2 66 2.6 SSE 11 15 6 8 1023.8 - 0.0
21/08:00pm 9.6 5.7 3.4 65 2.7 SSE 13 17 7 9 1023.7 - 0.0
21/07:30pm 9.8 6.4 4.0 67 2.6 SSE 11 13 6 7 1023.7 - 0.0
21/07:00pm 9.9 6.1 4.1 67 2.6 SSE 13 17 7 9 1023.5 - 0.0
21/06:30pm 10.2 6.5 4.4 67 2.6 SSE 13 15 7 8 1023.2 - 0.0
21/06:00pm 10.6 8.2 5.2 69 2.5 S 7 9 4 5 1023.1 1023.4 0.0
21/05:30pm 11.1 8.8 5.8 70 2.5 S 7 9 4 5 1023.0 - 0.0
21/05:00pm 11.7 9.5 6.0 68 2.7 S 7 17 4 9 1022.8 - 0.0
21/04:30pm 12.4 9.9 6.5 67 2.8 S 9 11 5 6 1022.8 - 0.0
21/04:00pm 13.0 11.0 7.0 67 2.9 S 7 11 4 6 1022.8 - 0.0
21/03:30pm 13.4 11.1 7.4 67 3.0 S 9 13 5 7 1022.6 - 0.0
21/03:00pm 14.4 12.3 6.7 60 3.7 W 7 13 4 7 1022.6 1022.9 0.0
21/02:30pm 14.8 13.1 7.6 62 3.6 W 6 11 3 6 1022.6 - 0.0
21/02:00pm 14.8 12.9 6.9 59 3.9 SW 6 13 3 7 1022.8 - 0.0
21/01:30pm 14.1 12.0 6.5 60 3.7 SSW 7 11 4 6 1023.0 - 0.0
21/01:00pm 13.3 11.1 6.2 62 3.4 ESE 7 13 4 7 1023.6 - 0.0
21/12:30pm 12.9 10.8 5.8 62 3.4 ESE 6 11 3 6 1024.1 - 0.0
21/12:00pm 11.9 9.7 6.0 67 2.8 SE 7 11 4 6 1024.6 1024.8 0.0
21/11:30am 10.3 7.7 5.9 74 2.0 SE 9 13 5 7 1024.9 - 0.0
21/11:00am 8.9 6.2 5.5 79 1.5 SE 9 11 5 6 1025.4 - 0.0
21/10:30am 7.9 5.3 6.0 88 0.9 ESE 9 11 5 6 1025.7 - 0.0
21/10:00am 6.9 5.9 5.7 92 0.5 CALM 0 7 0 4 1025.9 - 0.0
21/09:30am 5.1 2.2 4.8 98 0.1 E 9 13 5 7 1026.0 - 0.0
21/09:00am 4.4 -0.1 4.3 99 0.0 ESE 17 20 9 11 1025.4 1025.6 0.2
21/08:30am 3.0 -0.2 2.9 99 0.0 E 9 15 5 8 1025.5 - 0.2
21/08:00am 2.4 -2.8 2.3 99 0.0 ESE 19 20 10 11 1025.3 - 0.2
21/07:30am 1.5 -3.1 1.4 99 0.0 E 15 17 8 9 1025.4 - 0.2
21/07:00am 1.7 -2.5 1.6 99 0.0 E 13 15 7 8 1025.2 - 0.2
21/06:30am 1.1 -2.4 1.0 99 0.0 E 9 9 5 5 1025.3 - 0.2
21/06:00am 1.8 -1.6 1.7 99 0.0 ENE 9 15 5 8 1025.1 1025.3 0.2
21/05:30am 2.2 -3.1 2.1 99 0.0 ESE 19 20 10 11 1024.9 - 0.2
21/05:00am 2.3 -2.9 2.2 99 0.0 ESE 19 20 10 11 1024.9 - 0.2
21/04:30am 2.7 -1.7 2.6 99 0.0 ESE 15 17 8 9 1025.0 - 0.2
21/04:00am 1.7 -2.1 1.6 99 0.0 ESE 11 15 6 8 1025.0 - 0.2
21/03:30am 1.3 -0.5 1.2 99 0.0 CALM 0 11 0 6 1025.3 - 0.2
21/03:00am 1.2 -0.6 1.1 99 0.0 CALM 0 0 0 0 1025.4 1025.6 0.2
21/02:30am 1.7 0.0 1.6 99 0.0 CALM 0 0 0 0 1025.4 - 0.2
21/02:00am 1.9 -1.1 1.8 99 0.0 ENE 7 9 4 5 1025.5 - 0.2
21/01:30am 3.6 2.2 3.5 99 0.0 CALM 0 6 0 3 1025.5 - 0.2
21/01:00am 3.6 -0.3 3.3 98 0.1 ESE 13 13 7 7 1025.4 - 0.2
21/12:30am 3.9 -0.4 3.5 97 0.2 ESE 15 17 8 9 1025.5 - 0.2
21/12:00am 5.0 0.5 4.3 95 0.3 ESE 17 20 9 11 1025.6 1025.9 0.2
 
Date/Time
EST
Temp
°C
App
Temp
°C
Dew
Point
Rel
Hum
%
Delta-T
°C
Wind Press
QNH
hPa
Press
MSL
hPa
Rain
since 9 am
mm
Dir
 
Spd
km/h
Gust
km/h
Spd
kts
Gust
kts
20/11:30pm 5.1 1.0 4.4 95 0.3 ESE 15 17 8 9 1025.8 - 0.2
20/11:00pm 4.9 0.7 4.0 94 0.4 ESE 15 15 8 8 1025.9 - 0.2
20/10:30pm 4.9 1.1 4.0 94 0.4 ESE 13 15 7 8 1025.9 - 0.2
20/10:00pm 4.6 3.3 4.0 96 0.3 CALM 0 0 0 0 1026.1 - 0.2
20/09:30pm 5.1 3.8 4.1 93 0.4 CALM 0 0 0 0 1026.1 - 0.2
20/09:00pm 5.1 2.7 4.2 94 0.4 ESE 6 7 3 4 1026.2 1026.5 0.2
20/08:30pm 5.2 1.9 4.3 94 0.4 E 11 13 6 7 1026.2 - 0.2
20/08:00pm 4.7 1.8 2.7 87 0.8 ESE 7 11 4 6 1026.2 - 0.2
20/07:30pm 5.2 1.6 2.9 85 1.0 SE 11 13 6 7 1025.9 - 0.2
20/07:00pm 6.4 4.0 4.2 86 0.9 SSE 6 7 3 4 1026.0 - 0.2
20/06:30pm 7.2 4.2 4.0 80 1.4 SSE 9 11 5 6 1026.0 - 0.2
20/06:00pm 7.3 4.9 4.1 80 1.4 SSW 6 7 3 4 1026.0 1026.3 0.2
20/05:30pm 8.7 7.5 4.7 76 1.8 CALM 0 0 0 0 1025.7 - 0.2
20/05:00pm 11.2 8.6 4.4 63 3.1 WSW 7 9 4 5 1025.7 - 0.2
20/04:30pm 12.6 9.6 4.3 57 3.8 WSW 9 13 5 7 1025.6 - 0.2
20/04:00pm 13.6 11.1 4.7 55 4.1 NW 7 9 4 5 1025.6 - 0.2
20/03:30pm 14.1 11.4 3.8 50 4.7 NW 7 13 4 7 1025.7 - 0.2
20/03:00pm 14.4 12.1 2.6 45 5.2 WNW 4 9 2 5 1025.7 1026.0 0.2
20/02:30pm 14.5 11.8 3.6 48 5.0 NW 7 13 4 7 1025.8 - 0.2
20/02:00pm 14.3 11.2 5.7 56 4.1 NNW 11 17 6 9 1026.2 - 0.2
20/01:30pm 13.3 10.6 5.7 60 3.6 NW 9 15 5 8 1026.5 - 0.2
20/01:00pm 12.3 10.8 6.8 69 2.6 WNW 4 11 2 6 1026.9 - 0.0
20/12:30pm 11.0 10.1 7.7 80 1.6 SW 2 7 1 4 1027.3 - 0.0
20/12:00pm 9.1 8.7 8.3 95 0.4 CALM 0 0 0 0 1027.6 1027.9 0.0
20/11:30am 7.5 6.5 7.4 99 0.0 WNW 2 6 1 3 1028.1 - 0.0
20/11:18am 6.8 6.1 6.8 100 0.0 CALM 0 6 0 3 1028.2 - 0.0
20/11:14am 6.8 6.1 6.8 100 0.0 CALM 0 0 0 0 1028.2 - 0.0
20/11:12am 6.8 6.1 6.8 100 0.0 CALM 0 0 0 0 1028.3 - 0.0
20/11:00am 6.1 5.2 6.1 100 0.0 CALM 0 0 0 0 1028.4 - 0.0
20/10:30am 5.0 3.9 5.0 100 0.0 CALM 0 0 0 0 1028.5 - 0.0
20/10:00am 3.5 2.1 3.4 99 0.0 CALM 0 0 0 0 1028.7 - 0.0
20/09:30am 2.5 0.9 2.4 99 0.0 CALM 0 0 0 0 1028.5 - 0.0
20/09:00am 0.9 -1.0 0.8 99 0.0 CALM 0 6 0 3 1028.4 1028.7 0.0
20/08:59am 0.9 -1.0 0.8 99 0.0 CALM 0 6 0 3 1028.4 - 0.0
20/08:48am 0.7 -2.5 0.6 99 0.0 ESE 7 9 4 5 1028.3 - 0.0
20/08:36am 0.2 -3.5 0.1 99 0.0 E 9 11 5 6 1028.1 - 0.0
20/08:30am 0.1 -3.2 0.0 99 0.0 ENE 7 11 4 6 1028.1 - 0.0
20/08:00am -0.2 -3.6 -0.3 99 0.0 NNE 7 11 4 6 1027.8 - 0.0
20/07:30am -1.1 -3.3 -1.2 99 0.0 CALM 0 0 0 0 1027.8 - 0.0
20/07:00am -0.8 -2.9 -0.9 99 0.0 CALM 0 0 0 0 1027.7 - 0.0
20/06:30am -0.8 -2.9 -0.9 99 0.0 CALM 0 0 0 0 1027.3 - 0.0
20/06:00am -1.2 -3.4 -1.3 99 0.0 CALM 0 0 0 0 1027.1 1027.4 0.0
20/05:33am -1.6 -3.8 -1.7 99 0.0 CALM 0 0 0 0 1026.8 - 0.0
20/05:30am -1.6 -3.8 -1.7 99 0.0 CALM 0 0 0 0 1026.7 - 0.0
20/05:00am -1.0 -3.5 -1.1 99 0.0 NW 2 7 1 4 1026.3 - 0.0
20/04:30am -0.2 -2.6 -0.3 99 0.0 S 2 6 1 3 1026.2 - 0.0
20/04:04am 0.2 -1.8 0.1 99 0.0 CALM 0 0 0 0 1026.1 - 0.0
20/04:00am 0.2 -1.8 0.1 99 0.0 CALM 0 0 0 0 1026.1 - 0.0
20/03:52am 0.1 -1.9 0.0 99 0.0 CALM 0 0 0 0 1026.1 - 0.0
20/03:40am 0.1 -1.9 0.0 99 0.0 CALM 0 0 0 0 1026.1 - 0.0
20/03:37am -0.1 -2.1 -0.2 99 0.0 CALM 0 0 0 0 1026.0 - 0.0
20/03:30am 0.0 -2.0 -0.1 99 0.0 CALM 0 0 0 0 1026.0 - 0.0
20/03:24am 0.1 -1.9 0.0 99 0.0 CALM 0 2 0 1 1026.0 - 0.0
20/03:22am 0.2 -2.1 0.1 99 0.0 W 2 6 1 3 1026.0 - 0.0
20/03:00am 2.2 -0.8 2.1 99 0.0 ESE 7 13 4 7 1026.0 1026.3 0.0
20/02:30am 2.2 -0.6 2.1 99 0.0 ENE 6 7 3 4 1026.1 - 0.0
20/02:20am 2.8 1.2 2.7 99 0.0 CALM 0 0 0 0 1026.1 - 0.0
20/02:00am 1.9 0.2 1.8 99 0.0 CALM 0 0 0 0 1026.3 - 0.0
20/01:35am 2.7 1.1 2.6 99 0.0 CALM 0 0 0 0 1026.6 - 0.0
20/01:30am 3.1 1.6 3.0 99 0.0 CALM 0 0 0 0 1026.6 - 0.0
20/01:23am 3.4 2.0 3.3 99 0.0 CALM 0 0 0 0 1026.7 - 0.0
20/01:00am 4.6 3.4 4.5 99 0.0 CALM 0 0 0 0 1026.9 - 0.0
20/12:30am 4.1 1.5 4.0 99 0.0 SSW 7 11 4 6 1027.3 - 0.0
20/12:00am 2.0 0.3 1.9 99 0.0 CALM 0 6 0 3 1027.5 1027.8 0.0
 
Date/Time
EST
Temp
°C
App
Temp
°C
Dew
Point
Rel
Hum
%
Delta-T
°C
Wind Press
QNH
hPa
Press
MSL
hPa
Rain
since 9 am
mm
Dir
 
Spd
km/h
Gust
km/h
Spd
kts
Gust
kts
19/11:54pm 2.5 0.1 2.4 99 0.0 W 4 7 2 4 1027.6 - 0.0
19/11:30pm 2.5 0.9 2.4 99 0.0 CALM 0 0 0 0 1027.8 - 0.0
19/11:29pm 2.4 0.8 2.3 99 0.0 CALM 0 0 0 0 1027.8 - 0.0
19/11:00pm 2.8 1.2 2.7 99 0.0 CALM 0 0 0 0 1028.0 - 0.0
19/10:30pm 3.4 1.9 3.1 98 0.1 CALM 0 0 0 0 1028.0 - 0.0
19/10:00pm 3.8 2.3 2.8 93 0.4 CALM 0 0 0 0 1028.0 - 0.0
19/09:30pm 4.5 2.7 3.3 92 0.5 NNE 2 6 1 3 1028.0 - 0.0
19/09:00pm 5.4 4.1 4.2 92 0.5 CALM 0 6 0 3 1028.0 1028.3 0.0
19/08:30pm 7.3 5.3 4.3 81 1.3 S 4 6 2 3 1028.0 - 0.0
19/08:00pm 8.6 5.7 4.8 77 1.7 S 9 11 5 6 1028.1 - 0.0
19/07:30pm 8.1 4.7 3.9 75 1.8 S 11 13 6 7 1027.9 - 0.0

Other Formats:

Comma delimited format used in spreadsheet applications
http://www.bom.gov.au/fwo/IDN60801/IDN60801.95704.axf

JavaScript Object Notation format (JSON) in row-major order
http://www.bom.gov.au/fwo/IDN60801/IDN60801.95704.json